Time;durP1;ratioP1;P1;durP2;ratioP2;P2;SDS_P1;SDS_P2;PMS_P1;PMS_P2;Temp;Humidity;BMP_temperature;BMP_pressure;BME280_temperature;BME280_humidity;BME280_pressure;Samples;Min_cycle;Max_cycle;Signal;HPM_P1;HPM_P2
2022/07/25 00:01:13;;;;;;;;;;;24.10;99.90;;;;;;5091525;28;19915;-86
2022/07/25 00:03:38;;;;;;;;;;;24.10;99.90;;;;;;5091596;28;19949;-86
2022/07/25 00:06:04;;;;;;;;;;;24.10;99.90;;;;;;5092703;28;19965;-85
2022/07/25 00:08:30;;;;;;;;;;;24.10;99.90;;;;;;5091156;28;19991;-86
2022/07/25 00:10:55;;;;;;;;;;;24.10;99.90;;;;;;5092575;28;19915;-85
2022/07/25 00:13:21;;;;;;;;;;;24.00;99.90;;;;;;5091169;28;20343;-86
2022/07/25 00:15:46;;;;;;;;;;;24.00;99.90;;;;;;5090480;28;19916;-86
2022/07/25 00:18:11;;;;;;;;;;;24.00;99.90;;;;;;5074034;28;19908;-86
2022/07/25 00:20:37;;;;;;;;;;;24.00;99.90;;;;;;5092635;28;19908;-85
2022/07/25 00:23:02;;;;;;;;;;;24.00;99.90;;;;;;5074351;28;19999;-86
2022/07/25 00:25:28;;;;;;;;;;;24.00;99.90;;;;;;5091240;28;19915;-86
2022/07/25 00:27:53;;;;;;;;;;;24.00;99.90;;;;;;5091028;28;19908;-85
2022/07/25 00:30:19;;;;;;;;;;;24.00;99.90;;;;;;5091248;28;19920;-85
2022/07/25 00:32:44;;;;;;;;;;;24.00;99.90;;;;;;5091094;28;19923;-86
2022/07/25 00:35:10;;;;;;;;;;;24.00;99.90;;;;;;5094096;22;20031;-83
2022/07/25 00:37:35;;;;;;;;;;;24.00;99.90;;;;;;5032920;28;19909;-83
2022/07/25 00:40:01;;;;;;;;;;;23.90;99.90;;;;;;5034359;28;19913;-83
2022/07/25 00:42:26;;;;;;;;;;;23.90;99.90;;;;;;5034014;28;20339;-83
2022/07/25 00:44:52;;;;;;;;;;;23.90;99.90;;;;;;5032342;28;19910;-83
2022/07/25 00:47:18;;;;;;;;;;;23.90;99.90;;;;;;5015508;28;20406;-84
2022/07/25 00:49:43;;;;;;;;;;;23.90;99.90;;;;;;5016031;28;19924;-83
2022/07/25 00:52:09;;;;;;;;;;;23.80;99.90;;;;;;5015768;28;19909;-83
2022/07/25 00:54:34;;;;;;;;;;;23.80;99.90;;;;;;5034304;28;19913;-84
2022/07/25 00:57:00;;;;;;;;;;;23.80;99.90;;;;;;5040083;28;19924;-83
2022/07/25 00:59:25;;;;;;;;;;;23.70;99.90;;;;;;5054020;28;19952;-83
2022/07/25 01:01:51;;;;;;;;;;;23.70;99.90;;;;;;5043776;28;19920;-83
2022/07/25 01:04:17;;;;;;;;;;;23.60;99.90;;;;;;5052846;28;20058;-85
2022/07/25 01:06:42;;;;;;;;;;;23.60;99.90;;;;;;5052691;28;20284;-83
2022/07/25 01:09:08;;;;;;;;;;;23.60;99.90;;;;;;5052909;28;19967;-83
2022/07/25 01:11:33;;;;;;;;;;;23.50;99.90;;;;;;5034544;28;19915;-84
2022/07/25 01:13:59;;;;;;;;;;;23.50;99.90;;;;;;5034924;28;19909;-85
2022/07/25 01:16:24;;;;;;;;;;;23.40;99.90;;;;;;5051274;28;20303;-83
2022/07/25 01:18:50;;;;;;;;;;;23.40;99.90;;;;;;5053184;28;19913;-83
2022/07/25 01:21:15;;;;;;;;;;;23.40;99.90;;;;;;5051143;28;19916;-84
2022/07/25 01:23:41;;;;;;;;;;;23.40;99.90;;;;;;5054337;28;19909;-83
2022/07/25 01:26:07;;;;;;;;;;;23.30;99.90;;;;;;5037544;28;19909;-83
2022/07/25 01:28:32;;;;;;;;;;;23.30;99.90;;;;;;5055194;28;19909;-83
2022/07/25 01:30:58;;;;;;;;;;;23.30;99.90;;;;;;5037897;28;19916;-83
2022/07/25 01:33:23;;;;;;;;;;;23.30;99.90;;;;;;5037626;28;20011;-83
2022/07/25 01:35:49;;;;;;;;;;;23.30;99.90;;;;;;5037019;28;19917;-83
2022/07/25 01:38:14;;;;;;;;;;;23.20;99.90;;;;;;5037234;28;19915;-83
2022/07/25 01:40:40;;;;;;;;;;;23.20;99.90;;;;;;5055279;28;20435;-83
2022/07/25 01:43:06;;;;;;;;;;;23.20;99.90;;;;;;5037268;28;20308;-84
2022/07/25 01:45:31;;;;;;;;;;;22.90;99.90;;;;;;5055000;28;20387;-83
2022/07/25 01:47:57;;;;;;;;;;;23.20;99.90;;;;;;5037008;28;19936;-82
2022/07/25 01:50:23;;;;;;;;;;;23.20;99.90;;;;;;5053479;28;20380;-83
2022/07/25 01:52:48;;;;;;;;;;;23.10;99.90;;;;;;5037039;28;20051;-83
2022/07/25 01:55:14;;;;;;;;;;;23.10;99.90;;;;;;5036612;28;19908;-83
2022/07/25 01:57:39;;;;;;;;;;;23.10;99.90;;;;;;5053099;28;19909;-83
2022/07/25 02:00:06;;;;;;;;;;;23.10;99.90;;;;;;5036987;28;19909;-82
2022/07/25 02:02:32;;;;;;;;;;;23.10;99.90;;;;;;5037105;28;19909;-85
2022/07/25 02:04:57;;;;;;;;;;;23.00;99.90;;;;;;5036714;28;19909;-86
2022/07/25 02:07:22;;;;;;;;;;;23.00;99.90;;;;;;5036566;28;19920;-86
2022/07/25 02:09:48;;;;;;;;;;;23.00;99.90;;;;;;5036809;28;19913;-85
2022/07/25 02:12:14;;;;;;;;;;;23.00;99.90;;;;;;5036871;28;19934;-85
2022/07/25 02:14:39;;;;;;;;;;;23.00;99.90;;;;;;5036830;28;19909;-86
2022/07/25 02:17:05;;;;;;;;;;;23.00;99.90;;;;;;5054210;28;19916;-86
2022/07/25 02:19:30;;;;;;;;;;;23.00;99.90;;;;;;5054587;28;19912;-85
2022/07/25 02:21:56;;;;;;;;;;;23.00;99.90;;;;;;5036370;28;19919;-86
2022/07/25 02:24:21;;;;;;;;;;;23.00;99.90;;;;;;5036511;28;19943;-85
2022/07/25 02:26:47;;;;;;;;;;;22.90;99.90;;;;;;5036092;28;19916;-86
2022/07/25 02:29:12;;;;;;;;;;;22.90;99.90;;;;;;5054434;28;19928;-86
2022/07/25 02:31:38;;;;;;;;;;;22.90;99.90;;;;;;5036375;28;19909;-85
2022/07/25 02:34:03;;;;;;;;;;;22.90;99.90;;;;;;5053819;28;20017;-86
2022/07/25 02:36:29;;;;;;;;;;;22.90;99.90;;;;;;5035838;28;19921;-86
2022/07/25 02:38:54;;;;;;;;;;;22.80;99.90;;;;;;5054200;28;20375;-86
2022/07/25 02:41:20;;;;;;;;;;;22.80;99.90;;;;;;5036395;28;19944;-86
2022/07/25 02:43:45;;;;;;;;;;;22.70;99.90;;;;;;5036028;28;19980;-86
2022/07/25 02:46:11;;;;;;;;;;;22.80;99.90;;;;;;5052532;28;19913;-86
2022/07/25 02:48:36;;;;;;;;;;;22.70;99.90;;;;;;5053878;28;19909;-86
2022/07/25 02:51:02;;;;;;;;;;;22.70;99.90;;;;;;5036174;28;19955;-86
2022/07/25 02:53:27;;;;;;;;;;;22.70;99.90;;;;;;5053916;28;19909;-86
2022/07/25 02:55:53;;;;;;;;;;;22.80;99.90;;;;;;5035727;28;19909;-86
2022/07/25 02:58:18;;;;;;;;;;;22.70;99.90;;;;;;5035885;28;19975;-86
2022/07/25 03:00:44;;;;;;;;;;;22.70;99.90;;;;;;5035757;28;20317;-85
2022/07/25 03:03:09;;;;;;;;;;;22.60;99.90;;;;;;5035956;28;19940;-84
2022/07/25 03:05:35;;;;;;;;;;;22.60;99.90;;;;;;5035416;28;20007;-85
2022/07/25 03:08:00;;;;;;;;;;;22.60;99.90;;;;;;5035508;28;19920;-85
2022/07/25 03:10:26;;;;;;;;;;;22.60;99.90;;;;;;5035263;28;19917;-86
2022/07/25 03:12:51;;;;;;;;;;;22.60;99.90;;;;;;5035680;28;19979;-86
2022/07/25 03:15:17;;;;;;;;;;;22.60;99.90;;;;;;5053263;28;19909;-84
2022/07/25 03:17:42;;;;;;;;;;;22.60;99.90;;;;;;5053146;28;20023;-85
2022/07/25 03:20:09;;;;;;;;;;;22.60;99.90;;;;;;5053335;28;19912;-85
2022/07/25 03:22:34;;;;;;;;;;;22.60;99.90;;;;;;5035488;28;20101;-85
2022/07/25 03:25:00;;;;;;;;;;;22.60;99.90;;;;;;5035379;28;19972;-85
2022/07/25 03:27:25;;;;;;;;;;;22.60;99.90;;;;;;5052596;28;20379;-86
2022/07/25 03:29:51;;;;;;;;;;;22.60;99.90;;;;;;5037295;28;19927;-85
2022/07/25 03:32:17;;;;;;;;;;;22.60;99.90;;;;;;5052950;28;19995;-85
2022/07/25 03:34:42;;;;;;;;;;;22.60;99.90;;;;;;5034988;28;20043;-85
2022/07/25 03:37:08;;;;;;;;;;;22.60;99.90;;;;;;5052910;28;19909;-85
2022/07/25 03:39:33;;;;;;;;;;;22.60;99.90;;;;;;5053027;28;19916;-86
2022/07/25 03:41:59;;;;;;;;;;;22.60;99.90;;;;;;5052941;28;19915;-86
2022/07/25 03:44:24;;;;;;;;;;;22.60;99.90;;;;;;5035125;28;19909;-86
2022/07/25 03:46:50;;;;;;;;;;;22.60;99.90;;;;;;5051742;28;19978;-86
2022/07/25 03:49:16;;;;;;;;;;;22.60;99.90;;;;;;5034872;28;20383;-86
2022/07/25 03:51:42;;;;;;;;;;;22.60;99.90;;;;;;5035162;28;19923;-86
2022/07/25 03:54:12;;;;;;;;;;;22.60;99.90;;;;;;5034999;28;19916;-87
2022/07/25 03:56:44;;;;;;;;;;;22.60;99.90;;;;;;5052540;28;19917;-86
2022/07/25 03:59:10;;;;;;;;;;;22.60;99.90;;;;;;5048711;28;19908;-85
2022/07/25 04:01:36;;;;;;;;;;;22.70;99.90;;;;;;5042904;28;19959;-86
2022/07/25 04:04:01;;;;;;;;;;;22.60;99.90;;;;;;5059531;28;19920;-86
2022/07/25 04:06:27;;;;;;;;;;;22.60;99.90;;;;;;5034715;28;19909;-86
2022/07/25 04:08:53;;;;;;;;;;;22.60;99.90;;;;;;5033426;28;19913;-86
2022/07/25 04:11:19;;;;;;;;;;;22.70;99.90;;;;;;5032315;28;20286;-86
2022/07/25 04:13:45;;;;;;;;;;;22.70;99.90;;;;;;5051433;28;19916;-85
2022/07/25 04:16:11;;;;;;;;;;;22.70;99.90;;;;;;5050933;28;19947;-86
2022/07/25 04:18:36;;;;;;;;;;;22.70;99.90;;;;;;5051117;28;20371;-85
2022/07/25 04:21:03;;;;;;;;;;;22.80;99.90;;;;;;5051177;28;20011;-86
2022/07/25 04:23:28;;;;;;;;;;;22.80;99.90;;;;;;5051322;28;19916;-86
2022/07/25 04:25:54;;;;;;;;;;;22.80;99.90;;;;;;5050613;28;19909;-86
2022/07/25 04:28:20;;;;;;;;;;;22.90;99.90;;;;;;5051079;28;19935;-86
2022/07/25 04:30:45;;;;;;;;;;;22.90;99.90;;;;;;5050938;28;19912;-86
2022/07/25 04:33:11;;;;;;;;;;;23.00;99.90;;;;;;5051067;28;20303;-85
2022/07/25 04:35:37;;;;;;;;;;;23.00;99.90;;;;;;5050683;28;20003;-86
2022/07/25 04:38:02;;;;;;;;;;;23.00;99.90;;;;;;5052182;28;19916;-85
2022/07/25 04:40:28;;;;;;;;;;;23.10;99.90;;;;;;5052796;28;19909;-84
2022/07/25 04:42:53;;;;;;;;;;;23.10;99.90;;;;;;5051880;28;20279;-85
2022/07/25 04:45:19;;;;;;;;;;;23.20;99.90;;;;;;5051746;28;20434;-86
2022/07/25 04:47:44;;;;;;;;;;;23.20;99.90;;;;;;5035978;28;19912;-84
2022/07/25 04:50:10;;;;;;;;;;;23.30;99.90;;;;;;5037993;28;19917;-84
2022/07/25 04:52:36;;;;;;;;;;;23.30;99.90;;;;;;5039944;28;19915;-84
2022/07/25 04:55:02;;;;;;;;;;;23.40;99.90;;;;;;5059120;28;20272;-84
2022/07/25 04:57:28;;;;;;;;;;;23.40;99.90;;;;;;5034331;28;19909;-84
2022/07/25 04:59:54;;;;;;;;;;;23.40;99.90;;;;;;5044058;28;19909;-85
2022/07/25 05:02:19;;;;;;;;;;;23.50;99.90;;;;;;5040299;28;19999;-85
2022/07/25 05:04:45;;;;;;;;;;;23.60;99.90;;;;;;5060872;28;19909;-84
2022/07/25 05:07:10;;;;;;;;;;;23.60;99.90;;;;;;5041890;28;20378;-84
2022/07/25 05:09:36;;;;;;;;;;;23.70;99.90;;;;;;5059172;28;20000;-84
2022/07/25 05:12:01;;;;;;;;;;;23.80;99.90;;;;;;5042262;28;20364;-84
2022/07/25 05:14:26;;;;;;;;;;;23.90;99.90;;;;;;5041710;28;19955;-84
2022/07/25 05:16:52;;;;;;;;;;;23.90;99.90;;;;;;5041282;28;19909;-84
2022/07/25 05:19:17;;;;;;;;;;;24.00;99.90;;;;;;5056325;28;19909;-83
2022/07/25 05:21:43;;;;;;;;;;;24.00;99.90;;;;;;5039355;28;20007;-83
2022/07/25 05:24:08;;;;;;;;;;;24.00;99.90;;;;;;5055487;28;19912;-84
2022/07/25 05:26:34;;;;;;;;;;;24.10;99.90;;;;;;5056749;28;19915;-83
2022/07/25 05:28:59;;;;;;;;;;;24.10;99.90;;;;;;5039153;28;19913;-83
2022/07/25 05:31:25;;;;;;;;;;;24.10;99.90;;;;;;5058558;28;19909;-83
2022/07/25 05:33:50;;;;;;;;;;;24.10;99.90;;;;;;5040489;28;19955;-84
2022/07/25 05:36:17;;;;;;;;;;;24.10;99.90;;;;;;5040064;28;20402;-83
2022/07/25 05:38:42;;;;;;;;;;;24.10;99.90;;;;;;5055590;28;19952;-84
2022/07/25 05:41:08;;;;;;;;;;;24.10;99.90;;;;;;5054938;28;19908;-83
2022/07/25 05:43:33;;;;;;;;;;;24.20;99.90;;;;;;5056748;28;19909;-82
2022/07/25 05:46:02;;;;;;;;;;;24.20;99.90;;;;;;5055266;28;20395;-86
2022/07/25 05:48:28;;;;;;;;;;;24.20;99.90;;;;;;5055076;28;19908;-86
2022/07/25 05:50:53;;;;;;;;;;;24.30;99.90;;;;;;5053889;28;20054;-86
2022/07/25 05:53:19;;;;;;;;;;;24.40;99.90;;;;;;5055956;28;19909;-83
2022/07/25 05:55:44;;;;;;;;;;;24.50;99.90;;;;;;5038053;28;19937;-84
2022/07/25 05:58:10;;;;;;;;;;;24.60;99.90;;;;;;5055341;28;19913;-83
2022/07/25 06:00:36;;;;;;;;;;;24.70;99.90;;;;;;5037922;28;20383;-84
2022/07/25 06:03:01;;;;;;;;;;;24.80;99.90;;;;;;5038096;28;19908;-83
2022/07/25 06:05:27;;;;;;;;;;;24.90;99.90;;;;;;5056557;28;19971;-83
2022/07/25 06:07:52;;;;;;;;;;;25.00;99.90;;;;;;5036991;28;19912;-86
2022/07/25 06:10:18;;;;;;;;;;;25.10;99.90;;;;;;5035871;28;19917;-86
2022/07/25 06:12:43;;;;;;;;;;;25.20;99.90;;;;;;5037232;28;19959;-85
2022/07/25 06:15:09;;;;;;;;;;;25.30;99.90;;;;;;5037152;28;19909;-84
2022/07/25 06:17:35;;;;;;;;;;;25.40;99.90;;;;;;5036807;28;19992;-85
2022/07/25 06:20:00;;;;;;;;;;;25.60;99.90;;;;;;5036515;28;20399;-85
2022/07/25 06:22:26;;;;;;;;;;;25.70;99.90;;;;;;5053299;28;20016;-85
2022/07/25 06:24:51;;;;;;;;;;;25.90;99.90;;;;;;5036756;28;19995;-83
2022/07/25 06:27:16;;;;;;;;;;;26.10;99.90;;;;;;5037293;28;19913;-83
2022/07/25 06:29:42;;;;;;;;;;;26.20;99.90;;;;;;5054487;28;19939;-85
2022/07/25 06:32:07;;;;;;;;;;;26.40;99.90;;;;;;5044682;28;20004;-86
2022/07/25 06:34:33;;;;;;;;;;;26.60;99.90;;;;;;5044060;28;19913;-83
2022/07/25 06:36:59;;;;;;;;;;;26.70;99.90;;;;;;5055319;28;19924;-84
2022/07/25 06:39:24;;;;;;;;;;;26.80;99.90;;;;;;5041508;28;20272;-84
2022/07/25 06:41:50;;;;;;;;;;;27.00;99.90;;;;;;5036111;28;20380;-85
2022/07/25 06:44:16;;;;;;;;;;;27.00;99.90;;;;;;5061216;28;19916;-84
2022/07/25 06:46:41;;;;;;;;;;;27.20;99.90;;;;;;5045855;28;19913;-84
2022/07/25 06:49:07;;;;;;;;;;;27.30;99.90;;;;;;5053644;28;20011;-83
2022/07/25 06:51:32;;;;;;;;;;;27.50;99.90;;;;;;5053289;28;20311;-84
2022/07/25 06:53:58;;;;;;;;;;;27.50;99.90;;;;;;5054966;28;19909;-83
2022/07/25 06:56:23;;;;;;;;;;;27.60;99.90;;;;;;5052644;28;19913;-83
2022/07/25 06:58:49;;;;;;;;;;;27.70;99.90;;;;;;5054139;28;19909;-84
2022/07/25 07:01:14;;;;;;;;;;;27.80;99.90;;;;;;5053919;28;20003;-84
2022/07/25 07:03:40;;;;;;;;;;;27.80;99.90;;;;;;5053073;28;19913;-84
2022/07/25 07:06:08;;;;;;;;;;;27.90;99.90;;;;;;5053712;28;19909;-83
2022/07/25 07:08:34;;;;;;;;;;;28.00;99.90;;;;;;5053890;28;19912;-84
2022/07/25 07:11:00;;;;;;;;;;;28.10;99.90;;;;;;5052426;28;20288;-83
2022/07/25 07:13:26;;;;;;;;;;;28.10;99.90;;;;;;5053697;28;19908;-83
2022/07/25 07:15:51;;;;;;;;;;;28.20;99.90;;;;;;5053677;28;20318;-83
2022/07/25 07:18:17;;;;;;;;;;;28.30;99.90;;;;;;5053448;28;19916;-83
2022/07/25 07:20:43;;;;;;;;;;;28.40;99.90;;;;;;5052191;28;20372;-83
2022/07/25 07:23:09;;;;;;;;;;;28.60;99.90;;;;;;5051976;28;19943;-84
2022/07/25 07:25:34;;;;;;;;;;;28.80;99.90;;;;;;5052433;28;19908;-83
2022/07/25 07:28:00;;;;;;;;;;;28.90;99.90;;;;;;5053359;28;19967;-84
2022/07/25 07:30:25;;;;;;;;;;;29.00;99.90;;;;;;5053468;28;19982;-86
2022/07/25 07:32:51;;;;;;;;;;;29.00;99.90;;;;;;5053344;28;19909;-82
2022/07/25 07:35:17;;;;;;;;;;;29.10;99.90;;;;;;5051670;28;19963;-85
2022/07/25 07:37:44;;;;;;;;;;;29.10;99.90;;;;;;5051747;28;19936;-86
2022/07/25 07:40:10;;;;;;;;;;;29.30;99.90;;;;;;5053446;28;20008;-83
2022/07/25 07:42:40;;;;;;;;;;;29.50;99.90;;;;;;5051918;28;19909;-84
2022/07/25 07:45:09;;;;;;;;;;;29.60;99.90;;;;;;5051739;28;20423;-84
2022/07/25 07:47:34;;;;;;;;;;;29.80;99.90;;;;;;5053088;28;19954;-83
2022/07/25 07:50:00;;;;;;;;;;;29.80;99.90;;;;;;5051495;28;19917;-83
2022/07/25 07:52:25;;;;;;;;;;;30.00;99.90;;;;;;5051946;28;20356;-85
2022/07/25 07:57:35;;;;;;;;;;;30.20;99.90;;;;;;5053297;28;19935;-83
2022/07/25 08:00:01;;;;;;;;;;;30.10;99.90;;;;;;5051475;28;19909;-83
2022/07/25 08:02:26;;;;;;;;;;;30.30;99.90;;;;;;5034839;28;19916;-83
2022/07/25 08:04:51;;;;;;;;;;;30.30;99.90;;;;;;5031212;28;20417;-84
2022/07/25 08:07:17;;;;;;;;;;;30.50;99.90;;;;;;5032758;28;19909;-83
2022/07/25 08:09:42;;;;;;;;;;;30.60;99.90;;;;;;5031307;28;19920;-84
2022/07/25 08:12:08;;;;;;;;;;;30.60;99.90;;;;;;5031429;28;19979;-86
2022/07/25 08:14:33;;;;;;;;;;;30.50;99.90;;;;;;5031234;28;19909;-85
2022/07/25 08:16:59;;;;;;;;;;;30.60;99.90;;;;;;5032034;28;20273;-83
2022/07/25 08:19:24;;;;;;;;;;;30.40;99.90;;;;;;5032502;28;20323;-83
2022/07/25 08:21:50;;;;;;;;;;;30.30;99.90;;;;;;5032686;28;19920;-84
2022/07/25 08:24:15;;;;;;;;;;;30.30;99.90;;;;;;5032302;28;19913;-83
2022/07/25 08:26:41;;;;;;;;;;;30.20;99.90;;;;;;5032206;28;20268;-84
2022/07/25 08:29:06;;;;;;;;;;;30.10;99.90;;;;;;5033922;28;19921;-84
2022/07/25 08:31:32;;;;;;;;;;;29.90;99.90;;;;;;5052425;28;19909;-84
2022/07/25 08:33:58;;;;;;;;;;;29.70;98.80;;;;;;5052518;28;19928;-84
2022/07/25 08:36:23;;;;;;;;;;;29.70;99.00;;;;;;5051870;28;19924;-84
2022/07/25 08:38:48;;;;;;;;;;;29.60;98.80;;;;;;5042472;28;19956;-83
2022/07/25 08:41:14;;;;;;;;;;;29.50;99.80;;;;;;5058670;28;19915;-83
2022/07/25 08:43:40;;;;;;;;;;;29.50;99.90;;;;;;5052247;28;19913;-83
2022/07/25 08:46:06;;;;;;;;;;;29.50;99.90;;;;;;5050553;28;19909;-84
2022/07/25 08:48:32;;;;;;;;;;;29.40;99.90;;;;;;5050783;28;19959;-84
2022/07/25 08:50:58;;;;;;;;;;;29.40;99.90;;;;;;5051152;28;19942;-84
2022/07/25 08:53:24;;;;;;;;;;;29.40;99.90;;;;;;5052184;28;19912;-84
2022/07/25 08:55:49;;;;;;;;;;;29.20;99.90;;;;;;5050455;28;20426;-84
2022/07/25 08:58:16;;;;;;;;;;;29.10;99.90;;;;;;5050734;28;19909;-85
2022/07/25 09:00:42;;;;;;;;;;;29.30;99.90;;;;;;5050766;28;19916;-86
2022/07/25 09:03:07;;;;;;;;;;;30.10;99.90;;;;;;5055059;28;19909;-84
2022/07/25 09:05:34;;;;;;;;;;;30.80;99.90;;;;;;5051862;28;20421;-83
2022/07/25 09:08:25;;;;;;;;;;;32.40;96.60;;;;;;5034133;28;19908;-84
2022/07/25 09:10:51;;;;;;;;;;;33.80;93.80;;;;;;5024777;28;20687;-83
2022/07/25 09:13:18;;;;;;;;;;;35.50;90.10;;;;;;5050465;28;19917;-85
2022/07/25 09:15:43;;;;;;;;;;;36.30;83.70;;;;;;5045798;28;19916;-85
2022/07/25 09:18:12;;;;;;;;;;;37.20;75.20;;;;;;5048168;28;19909;-84
2022/07/25 09:20:40;;;;;;;;;;;38.30;71.50;;;;;;5041591;28;19916;-82
2022/07/25 09:23:06;;;;;;;;;;;39.20;66.60;;;;;;5056940;28;19909;-82
2022/07/25 09:25:32;;;;;;;;;;;39.30;57.80;;;;;;5034272;28;19999;-82
2022/07/25 09:28:09;;;;;;;;;;;38.80;58.70;;;;;;5051621;28;19956;-81
2022/07/25 09:30:35;;;;;;;;;;;39.10;57.10;;;;;;5051638;28;19916;-82
2022/07/25 09:33:00;;;;;;;;;;;38.70;54.90;;;;;;5051774;28;20322;-83
2022/07/25 09:35:35;;;;;;;;;;;37.20;55.60;;;;;;5035722;28;19924;-85
2022/07/25 09:38:10;;;;;;;;;;;35.50;57.20;;;;;;5054148;28;19913;-85
2022/07/25 09:40:36;;;;;;;;;;;34.10;61.30;;;;;;5053526;28;19908;-85
2022/07/25 09:43:01;;;;;;;;;;;33.40;62.90;;;;;;5035516;28;19916;-84
2022/07/25 09:45:27;;;;;;;;;;;32.80;65.90;;;;;;5035756;28;19909;-85
2022/07/25 09:47:54;;;;;;;;;;;32.30;68.20;;;;;;5037033;28;19915;-85
2022/07/25 09:50:20;;;;;;;;;;;31.70;70.80;;;;;;5037247;28;20682;-84
2022/07/25 09:52:46;;;;;;;;;;;31.00;76.10;;;;;;5054908;28;19909;-86
2022/07/25 09:55:13;;;;;;;;;;;30.60;76.10;;;;;;5037080;28;19959;-84
2022/07/25 09:57:38;;;;;;;;;;;30.10;78.00;;;;;;5036216;28;19959;-86
2022/07/25 10:00:05;;;;;;;;;;;29.60;83.60;;;;;;5036553;28;20360;-84
2022/07/25 10:02:37;;;;;;;;;;;29.30;87.70;;;;;;5054624;28;19913;-85
2022/07/25 10:05:08;;;;;;;;;;;29.00;88.00;;;;;;5036548;28;20421;-85
2022/07/25 10:07:36;;;;;;;;;;;28.70;91.20;;;;;;5036483;28;19912;-85
2022/07/25 10:10:02;;;;;;;;;;;28.40;92.20;;;;;;5036074;28;19963;-85
2022/07/25 10:12:27;;;;;;;;;;;28.00;95.50;;;;;;5036523;28;19909;-84
2022/07/25 10:15:07;;;;;;;;;;;27.70;99.70;;;;;;5036401;28;20429;-86
2022/07/25 10:17:32;;;;;;;;;;;27.40;99.90;;;;;;5035690;28;19912;-84
2022/07/25 10:20:00;;;;;;;;;;;27.20;99.90;;;;;;5036224;28;19943;-85
2022/07/25 10:22:38;;;;;;;;;;;27.00;99.90;;;;;;5060827;28;19931;-84
2022/07/25 10:25:18;;;;;;;;;;;26.90;99.90;;;;;;5052587;28;20342;-84
2022/07/25 10:27:48;;;;;;;;;;;26.80;99.90;;;;;;5052677;28;19975;-84
2022/07/25 10:30:22;;;;;;;;;;;26.80;99.90;;;;;;5054051;28;20060;-85
2022/07/25 10:32:54;;;;;;;;;;;26.60;99.90;;;;;;5054138;28;19948;-85
2022/07/25 10:35:20;;;;;;;;;;;26.70;99.90;;;;;;5052332;28;19967;-85
2022/07/25 10:37:49;;;;;;;;;;;26.70;99.90;;;;;;5054611;28;19948;-82
2022/07/25 10:40:33;;;;;;;;;;;26.80;99.90;;;;;;5053443;28;19909;-81
2022/07/25 10:43:00;;;;;;;;;;;27.20;99.90;;;;;;5056461;28;19915;-84
2022/07/25 10:45:26;;;;;;;;;;;29.70;99.90;;;;;;5059865;28;19959;-82
2022/07/25 10:47:54;;;;;;;;;;;32.30;99.90;;;;;;5058151;28;19951;-83
2022/07/25 10:50:21;;;;;;;;;;;33.00;94.10;;;;;;5057429;28;20431;-83
2022/07/25 10:52:57;;;;;;;;;;;32.40;92.10;;;;;;5037113;28;19916;-83
2022/07/25 10:55:23;;;;;;;;;;;32.10;92.10;;;;;;5058492;28;19919;-83
2022/07/25 10:57:58;;;;;;;;;;;31.80;91.40;;;;;;5058354;28;19908;-84
2022/07/25 11:00:24;;;;;;;;;;;31.80;91.10;;;;;;5056597;28;20380;-82
2022/07/25 11:02:49;;;;;;;;;;;31.70;91.20;;;;;;5057222;28;19963;-83
2022/07/25 11:05:15;;;;;;;;;;;31.30;90.30;;;;;;5054178;28;19962;-84
2022/07/25 11:07:48;;;;;;;;;;;31.00;91.70;;;;;;5052376;28;20448;-84
2022/07/25 11:10:14;;;;;;;;;;;30.70;90.50;;;;;;5052494;28;19920;-83
2022/07/25 11:12:43;;;;;;;;;;;30.50;90.20;;;;;;5054040;28;20376;-83
2022/07/25 11:15:09;;;;;;;;;;;30.30;90.70;;;;;;5052900;28;19909;-83
2022/07/25 11:17:34;;;;;;;;;;;30.10;90.50;;;;;;5053945;28;20437;-84
2022/07/25 11:20:05;;;;;;;;;;;30.10;90.10;;;;;;5052257;28;19958;-84
2022/07/25 11:22:31;;;;;;;;;;;30.00;88.60;;;;;;5052008;28;19913;-84
2022/07/25 11:24:58;;;;;;;;;;;29.90;88.00;;;;;;5053201;28;19909;-84
2022/07/25 11:27:25;;;;;;;;;;;29.90;89.00;;;;;;5057625;28;19909;-85
2022/07/25 11:29:51;;;;;;;;;;;30.10;89.70;;;;;;5056291;28;19920;-84
2022/07/25 11:32:16;;;;;;;;;;;30.40;90.80;;;;;;5055408;28;19916;-84
2022/07/25 11:34:43;;;;;;;;;;;30.50;85.30;;;;;;5052323;28;19952;-84
2022/07/25 11:37:09;;;;;;;;;;;30.50;86.90;;;;;;5052804;28;19908;-84
2022/07/25 11:39:36;;;;;;;;;;;30.30;83.90;;;;;;5061683;28;19915;-84
2022/07/25 11:42:06;;;;;;;;;;;29.80;87.40;;;;;;5052312;28;20508;-83
2022/07/25 11:44:39;;;;;;;;;;;29.80;86.50;;;;;;5059148;28;19932;-85
2022/07/25 11:47:23;;;;;;;;;;;30.00;85.80;;;;;;5069071;28;19992;-85
2022/07/25 11:49:52;;;;;;;;;;;30.10;84.10;;;;;;5069529;28;19913;-84
2022/07/25 11:52:21;;;;;;;;;;;30.20;84.00;;;;;;5071727;28;19987;-84
2022/07/25 11:54:51;;;;;;;;;;;30.40;84.20;;;;;;5069530;28;19915;-86
2022/07/25 11:57:24;;;;;;;;;;;30.40;83.20;;;;;;5069095;28;19909;-84
2022/07/25 11:59:49;;;;;;;;;;;30.60;84.70;;;;;;5069882;28;19915;-84
2022/07/25 12:02:22;;;;;;;;;;;30.70;83.50;;;;;;5064323;28;19913;-84
2022/07/25 12:04:55;;;;;;;;;;;30.70;83.60;;;;;;5062412;28;19946;-84
2022/07/25 12:07:21;;;;;;;;;;;30.70;82.60;;;;;;5062418;28;19948;-84
2022/07/25 12:09:56;;;;;;;;;;;30.50;81.60;;;;;;5063177;28;19913;-85
2022/07/25 12:12:21;;;;;;;;;;;30.50;84.70;;;;;;5063704;28;19916;-84
2022/07/25 12:14:47;;;;;;;;;;;30.70;87.40;;;;;;5063696;28;19909;-84
2022/07/25 12:17:13;;;;;;;;;;;30.80;83.80;;;;;;5063228;28;19909;-84
2022/07/25 12:19:38;;;;;;;;;;;30.80;84.80;;;;;;5063917;28;19931;-85
2022/07/25 12:22:04;;;;;;;;;;;30.90;84.20;;;;;;5059705;28;20279;-83
2022/07/25 12:24:29;;;;;;;;;;;30.80;83.70;;;;;;5052982;28;19955;-88
2022/07/25 12:26:55;;;;;;;;;;;30.80;84.80;;;;;;5055416;28;19909;-84
2022/07/25 12:29:20;;;;;;;;;;;31.10;84.70;;;;;;5043988;28;19913;-82
2022/07/25 12:31:46;;;;;;;;;;;31.20;86.50;;;;;;5054310;28;20443;-84
2022/07/25 12:34:11;;;;;;;;;;;31.30;84.30;;;;;;5053670;28;19909;-81
2022/07/25 12:36:42;;;;;;;;;;;31.30;86.30;;;;;;5053133;28;19952;-85
2022/07/25 12:39:08;;;;;;;;;;;31.30;89.60;;;;;;5052987;28;19909;-81
2022/07/25 12:41:33;;;;;;;;;;;31.40;88.20;;;;;;5053507;28;19909;-81
2022/07/25 12:44:01;;;;;;;;;;;31.60;88.00;;;;;;5053805;28;19916;-81
2022/07/25 12:46:26;;;;;;;;;;;31.60;85.70;;;;;;5041245;28;20007;-81
2022/07/25 12:48:52;;;;;;;;;;;31.30;86.10;;;;;;5050748;28;19990;-82
2022/07/25 12:51:18;;;;;;;;;;;31.10;86.80;;;;;;5051197;28;19994;-81
2022/07/25 12:53:44;;;;;;;;;;;31.00;88.30;;;;;;5052745;28;19909;-80
2022/07/25 12:56:10;;;;;;;;;;;30.70;89.50;;;;;;5051100;28;19991;-82
2022/07/25 12:58:36;;;;;;;;;;;30.80;90.40;;;;;;5053069;28;19948;-81
2022/07/25 13:01:02;;;;;;;;;;;30.80;91.50;;;;;;5051985;28;20354;-81
2022/07/25 13:03:28;;;;;;;;;;;30.80;90.40;;;;;;5054259;28;19944;-80
2022/07/25 13:05:53;;;;;;;;;;;30.90;92.00;;;;;;5052719;28;19917;-80
2022/07/25 13:08:19;;;;;;;;;;;31.00;91.00;;;;;;5052960;28;19920;-80
2022/07/25 13:10:44;;;;;;;;;;;31.00;91.60;;;;;;5052276;28;19967;-80
2022/07/25 13:13:09;;;;;;;;;;;30.90;90.60;;;;;;5054542;28;19913;-81
2022/07/25 13:15:35;;;;;;;;;;;31.00;91.00;;;;;;5050972;28;20273;-80
2022/07/25 13:18:02;;;;;;;;;;;30.90;91.00;;;;;;5051288;28;19912;-80
2022/07/25 13:20:28;;;;;;;;;;;30.90;91.30;;;;;;5057683;28;19939;-82
2022/07/25 13:22:53;;;;;;;;;;;30.70;90.70;;;;;;5057128;28;19909;-82
2022/07/25 13:25:19;;;;;;;;;;;30.40;91.20;;;;;;5055923;28;19916;-86
2022/07/25 13:27:46;;;;;;;;;;;30.40;91.60;;;;;;5038423;28;20269;-89
2022/07/25 13:30:13;;;;;;;;;;;30.40;90.90;;;;;;5042480;28;19913;-85
2022/07/25 13:32:38;;;;;;;;;;;30.50;91.50;;;;;;5054923;28;19936;-84
2022/07/25 13:35:04;;;;;;;;;;;30.70;90.70;;;;;;5046031;28;19971;-85
2022/07/25 13:37:30;;;;;;;;;;;30.90;91.10;;;;;;5017764;28;19967;-83
2022/07/25 13:39:56;;;;;;;;;;;31.00;90.40;;;;;;5033270;28;20372;-83
2022/07/25 13:42:21;;;;;;;;;;;31.10;90.40;;;;;;5055758;28;19916;-84
2022/07/25 13:44:47;;;;;;;;;;;30.90;89.50;;;;;;5055729;28;20012;-85
2022/07/25 13:47:12;;;;;;;;;;;31.00;90.10;;;;;;5054944;28;20451;-87
2022/07/25 13:49:45;;;;;;;;;;;30.80;88.30;;;;;;5053947;28;19919;-86
2022/07/25 13:52:11;;;;;;;;;;;30.40;88.10;;;;;;5055354;28;19908;-86
2022/07/25 13:54:36;;;;;;;;;;;30.20;89.40;;;;;;5037683;28;19916;-85
2022/07/25 13:57:02;;;;;;;;;;;30.10;90.80;;;;;;5037054;28;19909;-87
2022/07/25 13:59:28;;;;;;;;;;;29.90;91.00;;;;;;5037892;28;19920;-83
2022/07/25 14:01:54;;;;;;;;;;;29.80;90.60;;;;;;5053945;28;19963;-83
2022/07/25 14:04:19;;;;;;;;;;;29.70;90.80;;;;;;5055817;28;19909;-84
2022/07/25 14:06:50;;;;;;;;;;;29.70;91.50;;;;;;5054065;28;19946;-82
2022/07/25 14:09:16;;;;;;;;;;;29.80;90.90;;;;;;5055362;28;19927;-82
2022/07/25 14:11:41;;;;;;;;;;;29.90;92.20;;;;;;5037667;28;20011;-82
2022/07/25 14:14:07;;;;;;;;;;;30.10;92.10;;;;;;5053368;28;19913;-84